createdAt,value
2023-01-09T00:01:27.928Z,1.00
2023-01-09T00:03:56.234Z,1.00
2023-01-09T00:06:24.551Z,1.00
2023-01-09T00:08:54.229Z,99.90
2023-01-09T00:11:22.564Z,99.90
2023-01-09T00:13:50.874Z,99.90
2023-01-09T00:16:19.295Z,1.00
2023-01-09T00:18:47.640Z,1.00
2023-01-09T00:21:15.931Z,99.90
2023-01-09T00:23:44.210Z,1.00
2023-01-09T00:26:15.423Z,1.00
2023-01-09T00:28:43.673Z,30.50
2023-01-09T00:31:12.090Z,1.00
2023-01-09T00:33:45.785Z,99.90
2023-01-09T00:36:14.232Z,99.90
2023-01-09T00:38:42.484Z,99.90
2023-01-09T00:41:13.525Z,99.90
2023-01-09T00:43:43.315Z,99.90
2023-01-09T00:46:11.633Z,99.90
2023-01-09T00:48:40.535Z,99.90
2023-01-09T00:51:09.155Z,1.00
2023-01-09T00:53:38.727Z,1.00
2023-01-09T00:56:08.990Z,1.00
2023-01-09T00:58:38.835Z,99.90
2023-01-09T01:01:07.477Z,1.00
2023-01-09T01:03:35.849Z,99.90
2023-01-09T01:06:21.807Z,1.00
2023-01-09T01:08:50.097Z,1.00
2023-01-09T01:11:18.374Z,12.70
2023-01-09T01:13:48.085Z,1.00
2023-01-09T01:16:18.304Z,45.70
2023-01-09T01:18:46.704Z,51.10
2023-01-09T01:21:15.236Z,16.90
2023-01-09T01:23:43.784Z,1.00
2023-01-09T01:26:12.893Z,99.90
2023-01-09T01:28:41.241Z,99.90
2023-01-09T01:31:16.389Z,99.90
2023-01-09T01:33:44.757Z,99.90
2023-01-09T01:36:13.023Z,99.90
2023-01-09T01:38:41.338Z,99.90
2023-01-09T01:41:09.626Z,99.90
2023-01-09T01:43:51.323Z,99.90
2023-01-09T01:46:21.036Z,99.90
2023-01-09T01:48:49.888Z,99.90
2023-01-09T01:51:18.415Z,99.90
2023-01-09T01:53:48.249Z,99.90
2023-01-09T01:56:18.066Z,99.90
2023-01-09T01:58:47.391Z,99.90
2023-01-09T02:01:15.808Z,99.90
2023-01-09T02:03:45.835Z,66.20
2023-01-09T02:06:14.142Z,49.70
2023-01-09T02:08:42.614Z,99.70
2023-01-09T02:11:13.143Z,1.00
2023-01-09T02:13:41.444Z,1.00
2023-01-09T02:16:16.829Z,1.00
2023-01-09T02:18:54.204Z,1.00
2023-01-09T02:21:35.076Z,1.00
2023-01-09T02:24:36.759Z,1.00
2023-01-09T02:27:29.195Z,1.00
2023-01-09T02:30:25.421Z,99.90
2023-01-09T02:33:10.233Z,1.00
2023-01-09T02:35:47.187Z,1.00
2023-01-09T02:38:18.850Z,1.00
2023-01-09T02:40:49.444Z,1.00
2023-01-09T02:43:17.731Z,1.00
2023-01-09T02:45:47.407Z,1.00
2023-01-09T02:48:15.658Z,1.00
2023-01-09T02:50:47.380Z,1.00
2023-01-09T02:54:00.553Z,60.10
2023-01-09T02:56:47.999Z,99.90
2023-01-09T02:59:23.081Z,99.90
2023-01-09T03:01:58.454Z,99.90
2023-01-09T03:04:29.755Z,99.90
2023-01-09T03:07:01.155Z,1.00
2023-01-09T03:09:30.835Z,1.00
2023-01-09T03:12:01.443Z,1.00
2023-01-09T03:14:29.716Z,1.00
2023-01-09T03:17:01.646Z,1.00
2023-01-09T03:19:32.252Z,1.00
2023-01-09T03:22:00.667Z,1.00
2023-01-09T03:24:28.929Z,1.00
2023-01-09T03:26:57.286Z,1.00
2023-01-09T03:29:25.656Z,1.00
2023-01-09T03:31:54.040Z,47.30
2023-01-09T03:34:23.680Z,99.90
2023-01-09T03:36:52.089Z,28.30
2023-01-09T03:39:20.323Z,89.80
2023-01-09T03:41:48.708Z,99.90
2023-01-09T03:44:17.039Z,99.90
2023-01-09T03:46:45.323Z,99.90
2023-01-09T03:49:13.990Z,99.90
2023-01-09T03:51:43.934Z,99.90
2023-01-09T03:54:12.228Z,99.90
2023-01-09T03:56:40.524Z,99.90
2023-01-09T03:59:08.826Z,99.90
2023-01-09T04:01:37.247Z,99.90
2023-01-09T04:04:05.949Z,99.90
2023-01-09T04:06:34.273Z,99.90
2023-01-09T04:09:03.986Z,99.90
2023-01-09T04:11:32.334Z,99.90
2023-01-09T04:14:00.607Z,99.90
2023-01-09T04:16:28.918Z,1.00
2023-01-09T04:18:57.231Z,99.90
2023-01-09T04:21:25.559Z,99.90
2023-01-09T04:23:53.875Z,99.90
2023-01-09T04:26:23.543Z,99.90
2023-01-09T04:28:51.855Z,1.00
2023-01-09T04:31:20.190Z,1.00
2023-01-09T04:33:48.467Z,1.00
2023-01-09T04:36:16.753Z,1.00
2023-01-09T04:38:45.072Z,1.00
2023-01-09T04:41:34.312Z,1.00
2023-01-09T04:44:04.351Z,1.00
2023-01-09T04:46:32.680Z,1.00
2023-01-09T04:49:01.022Z,1.00
2023-01-09T04:51:29.266Z,1.00
2023-01-09T04:53:57.545Z,1.00
2023-01-09T04:56:25.816Z,1.00
2023-01-09T04:58:54.071Z,1.00
2023-01-09T05:01:24.019Z,1.00
2023-01-09T05:03:52.515Z,1.00
2023-01-09T05:06:20.848Z,1.00
2023-01-09T05:08:49.183Z,99.90
2023-01-09T05:11:17.467Z,99.90
2023-01-09T05:13:45.777Z,99.90
2023-01-09T05:16:14.150Z,99.90
2023-01-09T05:18:43.913Z,99.90
2023-01-09T05:21:12.213Z,99.90
2023-01-09T05:23:40.517Z,99.90
2023-01-09T05:26:08.775Z,99.90
2023-01-09T05:28:37.173Z,99.90
2023-01-09T05:31:05.794Z,99.90
2023-01-09T05:33:34.350Z,99.90
2023-01-09T05:36:04.092Z,99.90
2023-01-09T05:38:32.368Z,99.90
2023-01-09T05:41:00.608Z,99.90
2023-01-09T05:43:29.093Z,99.90
2023-01-09T05:45:57.473Z,99.90
2023-01-09T05:48:25.821Z,99.90
2023-01-09T05:50:54.094Z,99.90
2023-01-09T05:53:23.777Z,99.90
2023-01-09T05:55:52.030Z,99.90
2023-01-09T05:58:20.601Z,99.90
2023-01-09T06:00:49.542Z,99.90
2023-01-09T06:03:17.927Z,99.90
2023-01-09T06:05:46.252Z,1.00
2023-01-09T06:08:14.665Z,1.00
2023-01-09T06:10:44.433Z,1.00
2023-01-09T06:13:12.701Z,1.00
2023-01-09T06:15:41.001Z,1.00
2023-01-09T06:18:09.358Z,1.00
2023-01-09T06:20:37.662Z,1.00
2023-01-09T06:23:05.976Z,1.00
2023-01-09T06:25:34.229Z,99.90
2023-01-09T06:28:04.006Z,99.90
2023-01-09T06:30:32.313Z,1.00
2023-01-09T06:33:00.591Z,99.90
2023-01-09T06:35:28.992Z,99.90
2023-01-09T06:37:57.297Z,99.90
2023-01-09T06:40:25.957Z,99.90
2023-01-09T06:42:54.319Z,99.90
2023-01-09T06:45:23.999Z,99.90
2023-01-09T06:47:52.273Z,1.00
2023-01-09T06:50:20.786Z,1.00
2023-01-09T06:52:49.064Z,1.00
2023-01-09T06:55:18.079Z,1.00
2023-01-09T06:57:46.434Z,1.00
2023-01-09T07:00:15.410Z,1.00
2023-01-09T07:02:45.275Z,1.00
2023-01-09T07:05:13.776Z,1.00
2023-01-09T07:07:42.431Z,1.00
2023-01-09T07:10:12.178Z,1.00
2023-01-09T07:12:40.761Z,1.00
2023-01-09T07:15:10.136Z,1.00
2023-01-09T07:17:38.620Z,1.00
2023-01-09T07:20:11.566Z,1.00
2023-01-09T07:22:39.921Z,1.00
2023-01-09T07:25:08.779Z,1.00
2023-01-09T07:27:37.186Z,1.00
2023-01-09T07:30:06.736Z,1.00
2023-01-09T07:32:35.072Z,1.00
2023-01-09T07:35:03.512Z,1.00
2023-01-09T07:37:33.442Z,1.00
2023-01-09T07:40:02.122Z,1.00
2023-01-09T07:42:30.659Z,1.00
2023-01-09T07:44:58.996Z,1.00
2023-01-09T07:47:27.363Z,1.00
2023-01-09T07:49:55.963Z,1.00
2023-01-09T07:52:24.539Z,1.00
2023-01-09T07:54:54.238Z,1.00
2023-01-09T07:57:22.624Z,1.00
2023-01-09T07:59:54.173Z,1.00
2023-01-09T08:02:22.976Z,1.00
2023-01-09T08:04:51.541Z,1.00
2023-01-09T08:07:19.961Z,1.00
2023-01-09T08:09:48.382Z,1.00
2023-01-09T08:12:18.098Z,1.00
2023-01-09T08:14:46.389Z,1.00
2023-01-09T08:17:15.082Z,1.00
2023-01-09T08:19:44.203Z,1.00
2023-01-09T08:22:12.748Z,1.00
2023-01-09T08:24:41.103Z,1.00
2023-01-09T08:27:10.340Z,1.00
2023-01-09T08:29:40.015Z,1.00
2023-01-09T08:32:08.561Z,1.00
2023-01-09T08:34:37.118Z,1.00
2023-01-09T08:37:05.550Z,1.00
2023-01-09T08:39:33.824Z,1.00
2023-01-09T08:42:19.814Z,1.00
2023-01-09T08:45:06.731Z,1.00
2023-01-09T08:47:35.401Z,1.00
2023-01-09T08:50:04.504Z,1.00
2023-01-09T08:52:32.951Z,1.00
2023-01-09T08:55:01.317Z,1.00
2023-01-09T08:57:29.634Z,1.00
2023-01-09T08:59:59.666Z,1.00
2023-01-09T09:02:28.079Z,1.00
2023-01-09T09:04:56.490Z,1.00
2023-01-09T09:07:27.595Z,1.00
2023-01-09T09:09:55.877Z,1.00
2023-01-09T09:12:24.221Z,1.00
2023-01-09T09:15:09.769Z,1.00
2023-01-09T09:17:40.325Z,1.00
2023-01-09T09:20:10.469Z,1.00
2023-01-09T09:22:38.783Z,1.00
2023-01-09T09:25:07.454Z,1.00
2023-01-09T09:27:36.670Z,1.00
2023-01-09T09:30:05.395Z,1.00
2023-01-09T09:32:33.667Z,1.00
2023-01-09T09:35:03.346Z,1.00
2023-01-09T09:37:31.657Z,1.00
2023-01-09T09:40:09.858Z,2.30
2023-01-09T09:43:10.689Z,3.50
2023-01-09T09:45:42.922Z,4.90
2023-01-09T09:48:19.975Z,5.80
2023-01-09T09:51:28.892Z,7.00
2023-01-09T09:54:00.069Z,7.50
2023-01-09T09:56:28.820Z,8.00
2023-01-09T09:58:58.541Z,9.50
2023-01-09T10:01:30.532Z,10.40
2023-01-09T10:04:00.257Z,11.50
2023-01-09T10:06:31.946Z,12.60
2023-01-09T10:09:03.700Z,13.30
2023-01-09T10:11:35.254Z,15.00
2023-01-09T10:14:13.089Z,16.60
2023-01-09T10:17:06.808Z,17.80
2023-01-09T10:19:55.464Z,20.80
2023-01-09T10:22:28.034Z,22.10
2023-01-09T10:25:02.445Z,23.00
2023-01-09T10:27:36.297Z,24.10
2023-01-09T10:30:18.057Z,25.30
2023-01-09T10:32:52.110Z,26.40
2023-01-09T10:35:42.787Z,26.80
2023-01-09T10:38:17.164Z,27.10
2023-01-09T10:40:46.557Z,27.30
2023-01-09T10:43:17.593Z,27.70
2023-01-09T10:45:50.692Z,26.80
2023-01-09T10:48:24.674Z,24.00
2023-01-09T10:50:53.136Z,19.70
2023-01-09T10:53:23.863Z,16.00
2023-01-09T10:55:54.361Z,1.00
2023-01-09T10:58:23.114Z,1.00
2023-01-09T11:00:53.834Z,1.00
2023-01-09T11:03:23.436Z,1.00
2023-01-09T11:05:53.112Z,1.00
2023-01-09T11:08:28.451Z,1.00
2023-01-09T11:10:57.644Z,1.00
2023-01-09T11:13:27.109Z,1.00
2023-01-09T11:16:07.444Z,1.00
2023-01-09T11:18:36.076Z,1.00
2023-01-09T11:21:26.703Z,1.00
2023-01-09T11:23:56.594Z,1.00
2023-01-09T11:26:26.943Z,1.00
2023-01-09T11:29:12.262Z,1.00
2023-01-09T11:31:41.632Z,1.00
2023-01-09T11:34:16.974Z,1.00
2023-01-09T11:36:45.366Z,1.00
2023-01-09T11:39:22.226Z,1.00
2023-01-09T11:41:53.459Z,1.00
2023-01-09T11:44:21.978Z,1.00
2023-01-09T11:46:50.523Z,1.00
2023-01-09T11:49:23.789Z,1.00
2023-01-09T11:52:13.219Z,1.00
2023-01-09T11:54:43.607Z,1.00
2023-01-09T11:57:12.259Z,1.00
2023-01-09T11:59:40.580Z,1.00
2023-01-09T12:02:29.869Z,1.00
2023-01-09T12:04:59.883Z,1.00
2023-01-09T12:07:49.592Z,1.00
2023-01-09T12:10:42.475Z,1.00
2023-01-09T12:13:16.466Z,1.00
2023-01-09T12:15:48.287Z,1.00
2023-01-09T12:18:25.555Z,1.00
2023-01-09T12:21:33.058Z,1.00
2023-01-09T12:24:12.703Z,1.00
2023-01-09T12:26:44.973Z,1.00
2023-01-09T12:29:28.785Z,1.00
2023-01-09T12:32:13.795Z,1.00
2023-01-09T12:34:54.180Z,1.00
2023-01-09T12:37:37.432Z,1.00
2023-01-09T12:40:11.814Z,1.00
2023-01-09T12:42:46.090Z,1.00
2023-01-09T12:45:47.723Z,1.00
2023-01-09T12:48:23.887Z,1.00
2023-01-09T12:51:02.307Z,1.00
2023-01-09T12:53:32.200Z,1.00
2023-01-09T12:56:04.382Z,1.00
2023-01-09T12:58:41.199Z,1.00
2023-01-09T13:01:12.220Z,1.00
2023-01-09T13:03:42.395Z,1.00
2023-01-09T13:06:14.565Z,1.00
2023-01-09T13:08:43.857Z,1.00
2023-01-09T13:11:20.349Z,1.00
2023-01-09T13:13:51.415Z,1.00
2023-01-09T13:16:21.701Z,1.00
2023-01-09T13:18:52.706Z,1.00
2023-01-09T13:21:21.253Z,1.00
2023-01-09T13:23:50.926Z,1.00
2023-01-09T13:26:22.419Z,1.00
2023-01-09T13:28:53.582Z,1.00
2023-01-09T13:31:45.997Z,1.00
2023-01-09T13:34:21.912Z,1.00
2023-01-09T13:36:51.914Z,1.00
2023-01-09T13:39:24.641Z,1.00
2023-01-09T13:42:12.825Z,1.00
2023-01-09T13:44:42.564Z,1.00
2023-01-09T13:47:20.389Z,1.00
2023-01-09T13:50:02.825Z,1.00
2023-01-09T13:52:33.539Z,1.00
2023-01-09T13:55:23.918Z,1.00
2023-01-09T13:58:26.462Z,1.00
2023-01-09T14:00:58.567Z,99.90
2023-01-09T14:03:33.292Z,99.90
2023-01-09T14:06:20.152Z,99.90
2023-01-09T14:08:52.345Z,99.90
2023-01-09T14:11:22.274Z,99.90
2023-01-09T14:13:57.117Z,99.90
2023-01-09T14:16:27.387Z,99.90
2023-01-09T14:18:59.469Z,99.90
2023-01-09T14:21:27.957Z,99.90
2023-01-09T14:24:04.381Z,42.70
2023-01-09T14:26:44.176Z,71.90
2023-01-09T14:29:47.544Z,56.40
2023-01-09T14:32:45.646Z,23.10
2023-01-09T14:35:19.627Z,1.00
2023-01-09T14:38:03.053Z,99.90
2023-01-09T14:40:31.445Z,99.90
2023-01-09T14:43:02.596Z,99.90
2023-01-09T14:45:31.983Z,99.90
2023-01-09T14:48:03.103Z,99.90
2023-01-09T14:50:34.618Z,99.90
2023-01-09T14:53:05.832Z,99.90
2023-01-09T14:55:38.584Z,99.90
2023-01-09T14:58:13.802Z,99.90
2023-01-09T15:00:49.344Z,99.90
2023-01-09T15:03:19.154Z,1.00
2023-01-09T15:05:47.502Z,1.00
2023-01-09T15:08:18.017Z,1.00
2023-01-09T15:10:46.914Z,99.90
2023-01-09T15:13:17.223Z,99.90
2023-01-09T15:15:47.295Z,99.90
2023-01-09T15:18:21.973Z,99.90
2023-01-09T15:20:54.484Z,1.00
2023-01-09T15:23:24.095Z,99.90
2023-01-09T15:25:52.463Z,99.90
2023-01-09T15:28:32.503Z,1.00
2023-01-09T15:31:06.295Z,1.00
2023-01-09T15:33:36.193Z,1.00
2023-01-09T15:36:05.934Z,1.00
2023-01-09T15:38:36.081Z,1.00
2023-01-09T15:41:08.065Z,1.00
2023-01-09T15:43:37.160Z,1.00
2023-01-09T15:46:05.814Z,1.00
2023-01-09T15:48:35.736Z,1.00
2023-01-09T15:51:05.431Z,1.00
2023-01-09T15:53:33.911Z,29.00
2023-01-09T15:56:19.732Z,94.70
2023-01-09T15:58:48.364Z,99.90
2023-01-09T16:01:26.683Z,60.50
2023-01-09T16:03:57.796Z,99.90
2023-01-09T16:06:27.886Z,99.90
2023-01-09T16:08:57.925Z,99.90
2023-01-09T16:11:27.331Z,99.90
2023-01-09T16:13:56.170Z,99.90
2023-01-09T16:16:26.418Z,99.90
2023-01-09T16:18:56.783Z,1.00
2023-01-09T16:21:35.933Z,1.00
2023-01-09T16:24:20.335Z,1.00
2023-01-09T16:26:48.622Z,1.00
2023-01-09T16:29:34.091Z,1.00
2023-01-09T16:32:02.816Z,1.00
2023-01-09T16:34:32.685Z,1.00
2023-01-09T16:37:03.154Z,1.00
2023-01-09T16:39:31.548Z,1.00
2023-01-09T16:42:17.213Z,1.00
2023-01-09T16:44:45.478Z,1.00
2023-01-09T16:47:13.924Z,1.00
2023-01-09T16:49:43.793Z,1.00
2023-01-09T16:52:16.833Z,99.90
2023-01-09T16:54:46.967Z,99.90
2023-01-09T16:57:18.036Z,99.90
2023-01-09T16:59:46.676Z,89.00
2023-01-09T17:02:18.553Z,92.10
2023-01-09T17:04:48.286Z,99.90
2023-01-09T17:07:17.670Z,99.90
2023-01-09T17:09:46.545Z,99.90
2023-01-09T17:12:19.232Z,99.90
2023-01-09T17:14:47.662Z,99.90
2023-01-09T17:17:16.061Z,99.90
2023-01-09T17:19:45.788Z,99.90
2023-01-09T17:22:15.606Z,99.90
2023-01-09T17:25:01.404Z,99.90
2023-01-09T17:27:48.861Z,99.90
2023-01-09T17:30:19.400Z,99.90
2023-01-09T17:32:48.171Z,99.90
2023-01-09T17:35:16.624Z,99.90
2023-01-09T17:37:46.446Z,99.90
2023-01-09T17:40:19.262Z,99.90
2023-01-09T17:42:47.754Z,99.90
2023-01-09T17:45:16.227Z,99.90
2023-01-09T17:47:44.683Z,99.90
2023-01-09T17:50:17.357Z,99.90
2023-01-09T17:52:47.316Z,99.90
2023-01-09T17:55:15.879Z,99.90
2023-01-09T17:57:44.645Z,99.90
2023-01-09T18:00:18.352Z,99.90
2023-01-09T18:02:46.838Z,99.90
2023-01-09T18:05:15.328Z,99.90
2023-01-09T18:07:43.825Z,99.90
2023-01-09T18:10:15.005Z,99.90
2023-01-09T18:12:43.406Z,99.90
2023-01-09T18:15:12.358Z,99.90
2023-01-09T18:17:40.759Z,99.90
2023-01-09T18:20:10.832Z,99.90
2023-01-09T18:22:39.292Z,99.90
2023-01-09T18:25:08.130Z,99.90
2023-01-09T18:27:38.778Z,99.90
2023-01-09T18:30:08.374Z,99.90
2023-01-09T18:32:36.752Z,99.90
2023-01-09T18:35:05.374Z,99.90
2023-01-09T18:37:33.723Z,99.90
2023-01-09T18:40:02.326Z,99.90
2023-01-09T18:42:30.741Z,99.90
2023-01-09T18:45:00.715Z,99.90
2023-01-09T18:47:29.154Z,88.10
2023-01-09T18:49:57.454Z,88.90
2023-01-09T18:52:25.868Z,97.10
2023-01-09T18:54:54.250Z,76.30
2023-01-09T18:57:23.137Z,80.40
2023-01-09T18:59:51.483Z,59.80
2023-01-09T19:02:23.117Z,75.50
2023-01-09T19:04:51.450Z,86.00
2023-01-09T19:07:19.888Z,72.40
2023-01-09T19:09:48.244Z,71.40
2023-01-09T19:12:16.582Z,57.90
2023-01-09T19:14:44.968Z,64.40
2023-01-09T19:17:13.501Z,43.90
2023-01-09T19:19:43.217Z,41.90
2023-01-09T19:22:11.630Z,73.90
2023-01-09T19:24:39.995Z,99.50
2023-01-09T19:27:08.492Z,83.40
2023-01-09T19:29:37.034Z,39.10
2023-01-09T19:32:08.577Z,1.00
2023-01-09T19:34:36.940Z,1.00
2023-01-09T19:37:09.129Z,1.00
2023-01-09T19:39:38.267Z,1.00
2023-01-09T19:42:06.920Z,1.00
2023-01-09T19:44:35.306Z,99.90
2023-01-09T19:47:03.648Z,99.90
2023-01-09T19:49:32.309Z,99.90
2023-01-09T19:52:01.018Z,99.90
2023-01-09T19:54:31.419Z,99.90
2023-01-09T19:56:59.850Z,99.90
2023-01-09T19:59:28.251Z,99.90
2023-01-09T20:01:57.606Z,99.90
2023-01-09T20:04:27.654Z,99.90
2023-01-09T20:06:56.175Z,99.90
2023-01-09T20:09:27.613Z,57.70
2023-01-09T20:11:57.390Z,72.00
2023-01-09T20:14:25.993Z,1.00
2023-01-09T20:16:59.870Z,1.00
2023-01-09T20:19:30.202Z,1.00
2023-01-09T20:21:58.759Z,99.90
2023-01-09T20:24:27.298Z,99.90
2023-01-09T20:26:58.048Z,99.90
2023-01-09T20:29:26.556Z,99.90
2023-01-09T20:31:55.065Z,99.90
2023-01-09T20:34:23.380Z,99.90
2023-01-09T20:36:51.871Z,99.90
2023-01-09T20:39:20.460Z,99.90
2023-01-09T20:41:48.815Z,99.90
2023-01-09T20:44:18.565Z,99.90
2023-01-09T20:46:48.370Z,99.90
2023-01-09T20:49:18.261Z,95.90
2023-01-09T20:51:47.309Z,1.00
2023-01-09T20:54:15.690Z,1.00
2023-01-09T20:56:44.029Z,1.00
2023-01-09T20:59:13.106Z,99.90
2023-01-09T21:01:42.979Z,1.00
2023-01-09T21:04:11.337Z,99.90
2023-01-09T21:06:39.773Z,1.00
2023-01-09T21:09:08.256Z,1.00
2023-01-09T21:11:36.673Z,99.90
2023-01-09T21:14:05.341Z,1.00
2023-01-09T21:16:33.841Z,99.90
2023-01-09T21:19:03.845Z,99.90
2023-01-09T21:21:32.172Z,99.90
2023-01-09T21:24:00.961Z,99.90
2023-01-09T21:26:30.696Z,99.90
2023-01-09T21:29:00.049Z,99.90
2023-01-09T21:31:33.567Z,99.90
2023-01-09T21:34:04.632Z,99.90
2023-01-09T21:36:33.311Z,99.90
2023-01-09T21:39:01.797Z,99.90
2023-01-09T21:41:47.435Z,99.90
2023-01-09T21:44:32.875Z,53.60
2023-01-09T21:47:01.317Z,1.00
2023-01-09T21:49:31.485Z,1.00
2023-01-09T21:52:00.117Z,1.00
2023-01-09T21:54:28.507Z,1.00
2023-01-09T21:56:57.071Z,1.00
2023-01-09T21:59:25.576Z,1.00
2023-01-09T22:01:54.116Z,1.00
2023-01-09T22:04:23.602Z,99.90
2023-01-09T22:06:53.528Z,99.90
2023-01-09T22:09:22.035Z,99.90
2023-01-09T22:11:50.440Z,99.90
2023-01-09T22:14:19.288Z,99.90
2023-01-09T22:16:47.800Z,99.90
2023-01-09T22:19:18.019Z,99.90
2023-01-09T22:21:46.495Z,99.90
2023-01-09T22:24:16.894Z,99.90
2023-01-09T22:26:45.235Z,99.90
2023-01-09T22:29:13.833Z,99.90
2023-01-09T22:31:43.079Z,99.90
2023-01-09T22:34:14.150Z,99.90
2023-01-09T22:36:42.545Z,99.90
2023-01-09T22:39:12.651Z,99.90
2023-01-09T22:41:42.463Z,99.90
2023-01-09T22:44:11.266Z,99.90
2023-01-09T22:46:39.614Z,99.90
2023-01-09T22:49:07.979Z,99.90
2023-01-09T22:51:36.281Z,99.90
2023-01-09T22:54:04.687Z,99.90
2023-01-09T22:56:32.974Z,99.90
2023-01-09T22:59:02.746Z,99.90
2023-01-09T23:01:31.038Z,99.90
2023-01-09T23:03:59.370Z,1.00
2023-01-09T23:06:27.778Z,1.00
2023-01-09T23:08:56.191Z,1.00
2023-01-09T23:11:43.454Z,1.00
2023-01-09T23:14:13.515Z,1.00
2023-01-09T23:16:41.966Z,60.00
2023-01-09T23:19:12.939Z,99.90
2023-01-09T23:21:41.883Z,99.90
2023-01-09T23:24:11.010Z,65.80
2023-01-09T23:26:39.648Z,36.00
2023-01-09T23:29:08.007Z,46.80
2023-01-09T23:31:38.012Z,1.00
2023-01-09T23:34:08.167Z,1.00
2023-01-09T23:36:36.639Z,1.00
2023-01-09T23:39:09.008Z,1.00
2023-01-09T23:41:54.924Z,99.90
2023-01-09T23:44:23.229Z,99.90
2023-01-09T23:46:52.999Z,26.40
2023-01-09T23:49:21.330Z,1.00
2023-01-09T23:51:49.674Z,1.00
2023-01-09T23:54:18.052Z,1.00
2023-01-09T23:56:46.426Z,1.00
2023-01-09T23:59:16.948Z,1.00
